Time;durP1;ratioP1;P1;durP2;ratioP2;P2;SDS_P1;SDS_P2;PMS_P1;PMS_P2;Temp;Humidity;BMP_temperature;BMP_pressure;BME280_temperature;BME280_humidity;BME280_pressure;Samples;Min_cycle;Max_cycle;Signal;HPM_P1;HPM_P2
2023/04/26 00:02:11;;;;;;;0.20;0.10;;;;;;;;;;4938684;28;20117;-87
2023/04/26 00:04:40;;;;;;;0.20;0.10;;;;;;;;;;4922204;28;20036;-87
2023/04/26 00:07:12;;;;;;;0.20;0.10;;;;;;;;;;4922888;28;20046;-87
2023/04/26 00:09:40;;;;;;;0.20;0.10;;;;;;;;;;4927934;28;20683;-86
2023/04/26 00:12:06;;;;;;;0.20;0.10;;;;;;;;;;4942501;28;20054;-87
2023/04/26 00:14:35;;;;;;;0.20;0.10;;;;;;;;;;4928987;28;20081;-87
2023/04/26 00:17:03;;;;;;;0.20;0.10;;;;;;;;;;4930380;28;21004;-87
2023/04/26 00:19:29;;;;;;;0.20;0.15;;;;;;;;;;4946887;28;20045;-86
2023/04/26 00:21:55;;;;;;;0.20;0.10;;;;;;;;;;4928749;28;20058;-86
2023/04/26 00:24:21;;;;;;;0.20;0.10;;;;;;;;;;4930901;28;20138;-87
2023/04/26 00:26:47;;;;;;;0.20;0.10;;;;;;;;;;4929714;28;20134;-86
2023/04/26 00:29:13;;;;;;;0.20;0.10;;;;;;;;;;4932251;28;20053;-84
2023/04/26 00:31:40;;;;;;;0.20;0.10;;;;;;;;;;4927052;28;20047;-85
2023/04/26 00:34:06;;;;;;;0.20;0.08;;;;;;;;;;4935210;28;20084;-85
2023/04/26 00:36:32;;;;;;;0.20;0.10;;;;;;;;;;4926494;28;20070;-85
2023/04/26 00:38:58;;;;;;;0.20;0.10;;;;;;;;;;4929110;28;20073;-87
2023/04/26 00:41:24;;;;;;;0.20;0.10;;;;;;;;;;4940912;28;20039;-82
2023/04/26 00:43:50;;;;;;;0.20;0.10;;;;;;;;;;4926258;28;20078;-87
2023/04/26 00:46:16;;;;;;;0.20;0.10;;;;;;;;;;4950413;28;20082;-86
2023/04/26 00:48:42;;;;;;;0.20;0.10;;;;;;;;;;4934070;28;20062;-84
2023/04/26 00:51:08;;;;;;;0.20;0.10;;;;;;;;;;4938980;28;20081;-85
2023/04/26 00:53:40;;;;;;;0.20;0.10;;;;;;;;;;4926175;28;20045;-86
2023/04/26 00:56:21;;;;;;;0.20;0.10;;;;;;;;;;4954980;28;20042;-86
2023/04/26 00:58:47;;;;;;;0.20;0.10;;;;;;;;;;4929790;28;20051;-86
2023/04/26 01:01:13;;;;;;;0.20;0.00;;;;;;;;;;4933252;28;20045;-84
2023/04/26 01:03:40;;;;;;;0.20;0.10;;;;;;;;;;4931146;28;20043;-86
2023/04/26 01:06:06;;;;;;;0.20;0.00;;;;;;;;;;4931330;28;20050;-87
2023/04/26 01:08:32;;;;;;;0.20;0.00;;;;;;;;;;4925201;28;20506;-86
2023/04/26 01:10:58;;;;;;;0.20;0.10;;;;;;;;;;4923554;28;20054;-86
2023/04/26 01:13:25;;;;;;;0.20;0.10;;;;;;;;;;4948550;28;20050;-86
2023/04/26 01:15:51;;;;;;;0.20;0.10;;;;;;;;;;4932835;28;20134;-87
2023/04/26 01:18:17;;;;;;;0.20;0.00;;;;;;;;;;4926077;28;20047;-86
2023/04/26 01:20:45;;;;;;;0.20;0.10;;;;;;;;;;4924125;28;20388;-84
2023/04/26 01:23:11;;;;;;;0.20;0.10;;;;;;;;;;4945008;28;20177;-85
2023/04/26 01:25:37;;;;;;;0.20;0.10;;;;;;;;;;4931862;28;20443;-84
2023/04/26 01:28:03;;;;;;;0.95;0.47;;;;;;;;;;4927092;28;20047;-87
2023/04/26 01:30:29;;;;;;;0.20;0.10;;;;;;;;;;4942492;28;20050;-85
2023/04/26 01:32:55;;;;;;;0.20;0.10;;;;;;;;;;4923667;28;20038;-85
2023/04/26 01:35:21;;;;;;;0.20;0.10;;;;;;;;;;4924732;28;20516;-85
2023/04/26 01:37:47;;;;;;;0.63;0.25;;;;;;;;;;4941611;28;20045;-87
2023/04/26 01:40:14;;;;;;;0.20;0.10;;;;;;;;;;4938278;28;20039;-85
2023/04/26 01:42:40;;;;;;;0.20;0.10;;;;;;;;;;4949521;28;20050;-86
2023/04/26 01:45:06;;;;;;;0.20;0.10;;;;;;;;;;4930952;28;20045;-85
2023/04/26 01:47:32;;;;;;;0.20;0.10;;;;;;;;;;4949903;28;20039;-85
2023/04/26 01:49:58;;;;;;;0.20;0.00;;;;;;;;;;4949694;28;20031;-87
2023/04/26 01:52:24;;;;;;;0.20;0.00;;;;;;;;;;4932460;28;20727;-86
2023/04/26 01:54:50;;;;;;;0.20;0.10;;;;;;;;;;4923637;28;20039;-85
2023/04/26 01:57:16;;;;;;;0.20;0.10;;;;;;;;;;4925432;28;20543;-87
2023/04/26 01:59:42;;;;;;;0.20;0.10;;;;;;;;;;4930447;28;20035;-87
2023/04/26 02:02:08;;;;;;;0.20;0.10;;;;;;;;;;4927949;28;20215;-85
2023/04/26 02:04:35;;;;;;;0.20;0.10;;;;;;;;;;4946693;28;20590;-85
2023/04/26 02:07:01;;;;;;;0.20;0.10;;;;;;;;;;4933422;28;20423;-85
2023/04/26 02:11:55;;;;;;;0.20;0.10;;;;;;;;;;4977382;28;20041;-82
2023/04/26 02:14:21;;;;;;;0.20;0.10;;;;;;;;;;4969484;28;20487;-83
2023/04/26 02:16:48;;;;;;;0.20;0.10;;;;;;;;;;4969254;28;20174;-83
2023/04/26 02:19:14;;;;;;;0.20;0.10;;;;;;;;;;4942074;28;20081;-83
2023/04/26 02:21:50;;;;;;;0.20;0.10;;;;;;;;;;4965332;28;20042;-83
2023/04/26 02:24:16;;;;;;;0.20;0.10;;;;;;;;;;4965882;28;20131;-84
2023/04/26 02:26:42;;;;;;;0.20;0.10;;;;;;;;;;4967267;28;20047;-82
2023/04/26 02:29:08;;;;;;;0.20;0.10;;;;;;;;;;4963273;28;21370;-83
2023/04/26 02:31:34;;;;;;;0.20;0.10;;;;;;;;;;4957537;28;20049;-84
2023/04/26 02:34:01;;;;;;;0.20;0.10;;;;;;;;;;4971567;28;20046;-83
2023/04/26 02:36:27;;;;;;;0.20;0.10;;;;;;;;;;4971013;28;20069;-83
2023/04/26 02:38:54;;;;;;;0.20;0.10;;;;;;;;;;4968693;28;20126;-84
2023/04/26 02:41:20;;;;;;;0.20;0.10;;;;;;;;;;4952371;28;20077;-85
2023/04/26 02:43:46;;;;;;;0.20;0.10;;;;;;;;;;4973179;28;20042;-83
2023/04/26 02:46:13;;;;;;;0.20;0.10;;;;;;;;;;4965034;28;20572;-83
2023/04/26 02:48:39;;;;;;;0.20;0.10;;;;;;;;;;4966000;28;20042;-83
2023/04/26 02:51:05;;;;;;;0.20;0.10;;;;;;;;;;4972229;28;20068;-84
2023/04/26 02:53:31;;;;;;;0.20;0.10;;;;;;;;;;4967174;28;20489;-83
2023/04/26 02:55:59;;;;;;;0.20;0.10;;;;;;;;;;4969807;28;20057;-84
2023/04/26 02:58:25;;;;;;;0.20;0.10;;;;;;;;;;4971794;28;20078;-84
2023/04/26 03:00:53;;;;;;;0.20;0.10;;;;;;;;;;4964586;28;20038;-84
2023/04/26 03:03:19;;;;;;;0.20;0.10;;;;;;;;;;4972536;28;20330;-83
2023/04/26 03:05:45;;;;;;;0.20;0.10;;;;;;;;;;4975372;28;20088;-84
2023/04/26 03:08:11;;;;;;;0.20;0.00;;;;;;;;;;4976167;28;20485;-84
2023/04/26 03:10:37;;;;;;;0.20;0.10;;;;;;;;;;4964250;28;20476;-84
2023/04/26 03:13:06;;;;;;;0.20;0.13;;;;;;;;;;4969254;28;20491;-85
2023/04/26 03:15:32;;;;;;;0.20;0.10;;;;;;;;;;4972108;28;20042;-83
2023/04/26 03:17:58;;;;;;;0.20;0.10;;;;;;;;;;4967626;28;20068;-84
2023/04/26 03:20:24;;;;;;;0.20;0.10;;;;;;;;;;4966866;28;20668;-84
2023/04/26 03:22:50;;;;;;;0.20;0.10;;;;;;;;;;4969740;28;20038;-85
2023/04/26 03:25:16;;;;;;;0.20;0.10;;;;;;;;;;4968607;28;20049;-84
2023/04/26 03:27:42;;;;;;;0.20;0.10;;;;;;;;;;4947173;28;20118;-84
2023/04/26 03:30:09;;;;;;;0.30;0.30;;;;;;;;;;4967818;28;20546;-83
2023/04/26 03:32:35;;;;;;;0.20;0.10;;;;;;;;;;4966797;28;20484;-84
2023/04/26 03:35:01;;;;;;;0.20;0.10;;;;;;;;;;4969404;28;20144;-84
2023/04/26 03:37:27;;;;;;;0.20;0.10;;;;;;;;;;4970474;28;20092;-84
2023/04/26 03:39:53;;;;;;;0.20;0.10;;;;;;;;;;4971820;28;20074;-84
2023/04/26 03:42:22;;;;;;;0.20;0.10;;;;;;;;;;4971731;28;20365;-85
2023/04/26 03:44:48;;;;;;;0.20;0.00;;;;;;;;;;4966490;28;20121;-84
2023/04/26 03:47:14;;;;;;;0.20;0.10;;;;;;;;;;4943021;28;20414;-84
2023/04/26 03:49:41;;;;;;;0.20;0.10;;;;;;;;;;4961818;28;20050;-84
2023/04/26 03:52:07;;;;;;;0.20;0.10;;;;;;;;;;4968195;28;20130;-84
2023/04/26 03:54:33;;;;;;;0.20;0.10;;;;;;;;;;4972972;28;20113;-85
2023/04/26 03:57:00;;;;;;;0.20;0.10;;;;;;;;;;4972208;28;20375;-83
2023/04/26 03:59:26;;;;;;;0.20;0.00;;;;;;;;;;4970597;28;20565;-83
2023/04/26 04:01:52;;;;;;;0.20;0.10;;;;;;;;;;4964620;28;20568;-83
2023/04/26 04:04:18;;;;;;;0.20;0.10;;;;;;;;;;4945318;28;20040;-84
2023/04/26 04:06:44;;;;;;;0.20;0.10;;;;;;;;;;4964814;28;20038;-83
2023/04/26 04:09:10;;;;;;;0.20;0.10;;;;;;;;;;4951005;28;20427;-83
2023/04/26 04:11:36;;;;;;;0.20;0.10;;;;;;;;;;4962587;28;20046;-83
2023/04/26 04:14:02;;;;;;;0.20;0.20;;;;;;;;;;4968763;28;20054;-84
2023/04/26 04:16:28;;;;;;;0.20;0.10;;;;;;;;;;4966101;28;20053;-83
2023/04/26 04:18:54;;;;;;;0.20;0.10;;;;;;;;;;4964301;28;20054;-83
2023/04/26 04:21:20;;;;;;;0.20;0.10;;;;;;;;;;4964693;28;20467;-84
2023/04/26 04:23:46;;;;;;;0.20;0.10;;;;;;;;;;4959705;28;20507;-83
2023/04/26 04:26:13;;;;;;;0.20;0.10;;;;;;;;;;4963301;28;20116;-85
2023/04/26 04:28:43;;;;;;;0.20;0.10;;;;;;;;;;4963265;28;20042;-83
2023/04/26 04:31:10;;;;;;;0.20;0.10;;;;;;;;;;4946274;28;20045;-83
2023/04/26 04:33:36;;;;;;;0.20;0.05;;;;;;;;;;4940365;28;20340;-84
2023/04/26 04:36:02;;;;;;;0.20;0.10;;;;;;;;;;4946569;28;23099;-84
2023/04/26 04:38:28;;;;;;;0.20;0.10;;;;;;;;;;4958682;28;20125;-84
2023/04/26 04:40:54;;;;;;;0.20;0.10;;;;;;;;;;4946347;28;20387;-84
2023/04/26 04:43:22;;;;;;;0.20;0.10;;;;;;;;;;4962923;28;20046;-84
2023/04/26 04:45:48;;;;;;;0.20;0.20;;;;;;;;;;4946404;28;20495;-84
2023/04/26 04:48:14;;;;;;;0.20;0.10;;;;;;;;;;4947714;28;20038;-84
2023/04/26 04:50:43;;;;;;;0.20;0.10;;;;;;;;;;4963992;28;20491;-84
2023/04/26 04:53:11;;;;;;;0.20;0.00;;;;;;;;;;4958191;28;20042;-84
2023/04/26 04:55:37;;;;;;;0.20;0.10;;;;;;;;;;4963460;28;20054;-83
2023/04/26 04:58:03;;;;;;;0.20;0.10;;;;;;;;;;4959873;28;20538;-84
2023/04/26 05:00:30;;;;;;;0.20;0.10;;;;;;;;;;4962666;28;20053;-83
2023/04/26 05:02:56;;;;;;;0.20;0.10;;;;;;;;;;4963895;28;20042;-83
2023/04/26 05:05:22;;;;;;;0.20;0.10;;;;;;;;;;4961008;28;20038;-82
2023/04/26 05:07:48;;;;;;;0.20;0.10;;;;;;;;;;4964024;28;20499;-83
2023/04/26 05:10:15;;;;;;;0.20;0.10;;;;;;;;;;4950481;28;20038;-84
2023/04/26 05:12:41;;;;;;;0.20;0.10;;;;;;;;;;4962136;28;20037;-84
2023/04/26 05:15:08;;;;;;;0.20;0.10;;;;;;;;;;4971216;28;20057;-83
2023/04/26 05:17:34;;;;;;;0.20;0.10;;;;;;;;;;4968052;28;20030;-85
2023/04/26 05:20:03;;;;;;;0.20;0.08;;;;;;;;;;4955858;28;20038;-85
2023/04/26 05:22:31;;;;;;;0.20;0.10;;;;;;;;;;4973340;28;20034;-85
2023/04/26 05:24:57;;;;;;;0.20;0.10;;;;;;;;;;4951629;28;20069;-85
2023/04/26 05:27:23;;;;;;;0.20;0.20;;;;;;;;;;4976929;28;20146;-84
2023/04/26 05:29:49;;;;;;;0.20;0.10;;;;;;;;;;4961112;28;20050;-84
2023/04/26 05:32:15;;;;;;;0.20;0.10;;;;;;;;;;4949591;28;20045;-85
2023/04/26 05:34:41;;;;;;;0.20;0.10;;;;;;;;;;4948604;28;20045;-84
2023/04/26 05:37:07;;;;;;;0.20;0.10;;;;;;;;;;4966609;28;20050;-84
2023/04/26 05:39:33;;;;;;;0.20;0.10;;;;;;;;;;4975542;28;20077;-83
2023/04/26 05:41:59;;;;;;;0.20;0.10;;;;;;;;;;4964465;28;20491;-84
2023/04/26 05:44:25;;;;;;;0.20;0.10;;;;;;;;;;4944201;28;20046;-83
2023/04/26 05:46:51;;;;;;;0.20;0.10;;;;;;;;;;4966155;28;20038;-83
2023/04/26 05:49:17;;;;;;;0.20;0.10;;;;;;;;;;4965779;28;20038;-84
2023/04/26 05:51:43;;;;;;;0.20;0.03;;;;;;;;;;4971628;28;20046;-85
2023/04/26 05:54:09;;;;;;;0.20;0.10;;;;;;;;;;4960432;28;20053;-84
2023/04/26 05:56:35;;;;;;;0.20;0.10;;;;;;;;;;4963735;28;20045;-84
2023/04/26 05:59:01;;;;;;;0.25;0.13;;;;;;;;;;4966533;28;20034;-84
2023/04/26 06:01:27;;;;;;;0.20;0.10;;;;;;;;;;4949053;28;20050;-84
2023/04/26 06:03:53;;;;;;;0.20;0.10;;;;;;;;;;4964036;28;20043;-84
2023/04/26 06:06:19;;;;;;;0.20;0.10;;;;;;;;;;4964411;28;20078;-84
2023/04/26 06:08:45;;;;;;;0.32;0.30;;;;;;;;;;4963528;28;20193;-83
2023/04/26 06:11:11;;;;;;;0.20;0.10;;;;;;;;;;4948040;28;20065;-84
2023/04/26 06:13:37;;;;;;;0.20;0.10;;;;;;;;;;4971455;28;20058;-83
2023/04/26 06:16:03;;;;;;;0.20;0.10;;;;;;;;;;4959339;28;20502;-84
2023/04/26 06:18:29;;;;;;;0.20;0.10;;;;;;;;;;4971644;28;20062;-82
2023/04/26 06:20:55;;;;;;;0.20;0.10;;;;;;;;;;4974910;28;20069;-83
2023/04/26 06:23:21;;;;;;;0.20;0.20;;;;;;;;;;4960624;28;20053;-82
2023/04/26 06:25:47;;;;;;;0.20;0.10;;;;;;;;;;4976916;28;20038;-81
2023/04/26 06:28:13;;;;;;;0.20;0.10;;;;;;;;;;4970513;28;20057;-83
2023/04/26 06:30:40;;;;;;;0.20;0.10;;;;;;;;;;4971934;28;20533;-85
2023/04/26 06:33:06;;;;;;;0.20;0.10;;;;;;;;;;4952933;28;20041;-84
2023/04/26 06:35:32;;;;;;;0.20;0.10;;;;;;;;;;4964138;28;20061;-83
2023/04/26 06:37:58;;;;;;;0.20;0.10;;;;;;;;;;4974112;28;20495;-84
2023/04/26 06:40:27;;;;;;;0.20;0.10;;;;;;;;;;4967770;28;20050;-83
2023/04/26 06:42:53;;;;;;;0.20;0.10;;;;;;;;;;4989634;28;20062;-85
2023/04/26 06:45:25;;;;;;;0.20;0.10;;;;;;;;;;4969293;28;20042;-84
2023/04/26 06:47:55;;;;;;;0.20;0.10;;;;;;;;;;4965875;28;20121;-84
2023/04/26 06:50:25;;;;;;;0.20;0.10;;;;;;;;;;4962923;28;20084;-84
2023/04/26 06:52:52;;;;;;;0.20;0.10;;;;;;;;;;4975532;28;20046;-84
2023/04/26 06:55:18;;;;;;;0.20;0.10;;;;;;;;;;4967509;28;20057;-82
2023/04/26 06:57:44;;;;;;;0.20;0.10;;;;;;;;;;4972054;28;20052;-82
2023/04/26 07:00:11;;;;;;;0.20;0.10;;;;;;;;;;4961644;28;20054;-84
2023/04/26 07:02:37;;;;;;;0.20;0.20;;;;;;;;;;4970108;28;20110;-85
2023/04/26 07:05:03;;;;;;;0.20;0.10;;;;;;;;;;4966858;28;20072;-83
2023/04/26 07:07:30;;;;;;;0.20;0.10;;;;;;;;;;4972622;28;20132;-82
2023/04/26 07:09:56;;;;;;;0.20;0.10;;;;;;;;;;4954050;28;20046;-84
2023/04/26 07:12:22;;;;;;;0.20;0.10;;;;;;;;;;4968941;28;20074;-82
2023/04/26 07:14:48;;;;;;;1.35;0.63;;;;;;;;;;4969008;28;20066;-83
2023/04/26 07:17:14;;;;;;;0.20;0.10;;;;;;;;;;4952033;28;20041;-83
2023/04/26 07:19:40;;;;;;;0.20;0.10;;;;;;;;;;4972298;28;20053;-83
2023/04/26 07:22:06;;;;;;;0.20;0.10;;;;;;;;;;4981480;28;20085;-85
2023/04/26 07:24:41;;;;;;;0.20;0.20;;;;;;;;;;4974948;28;20675;-83
2023/04/26 07:27:29;;;;;;;0.20;0.10;;;;;;;;;;4980612;28;20116;-82
2023/04/26 07:29:55;;;;;;;0.20;0.10;;;;;;;;;;4964619;28;20462;-83
2023/04/26 07:32:21;;;;;;;0.20;0.10;;;;;;;;;;4948502;28;20483;-82
2023/04/26 07:34:47;;;;;;;0.20;0.10;;;;;;;;;;4957268;28;20116;-84
2023/04/26 07:37:13;;;;;;;0.20;0.10;;;;;;;;;;4977004;28;20034;-83
2023/04/26 07:39:45;;;;;;;0.20;0.10;;;;;;;;;;4969843;28;20414;-84
2023/04/26 07:42:11;;;;;;;0.20;0.10;;;;;;;;;;4972605;28;20094;-84
2023/04/26 07:44:37;;;;;;;0.20;0.10;;;;;;;;;;4974693;28;20124;-83
2023/04/26 07:47:03;;;;;;;0.20;0.00;;;;;;;;;;4969627;28;20050;-84
2023/04/26 07:49:29;;;;;;;0.20;0.10;;;;;;;;;;4972912;28;20473;-82
2023/04/26 07:51:57;;;;;;;0.20;0.00;;;;;;;;;;4967224;28;20149;-84
2023/04/26 07:54:23;;;;;;;0.20;0.10;;;;;;;;;;4947419;28;20092;-85
2023/04/26 07:56:51;;;;;;;0.20;0.10;;;;;;;;;;4963689;28;20058;-85
2023/04/26 07:59:23;;;;;;;0.20;0.10;;;;;;;;;;4966750;28;20058;-84
2023/04/26 08:01:49;;;;;;;0.20;0.10;;;;;;;;;;4974739;28;20042;-84
2023/04/26 08:04:15;;;;;;;0.20;0.10;;;;;;;;;;4952108;28;20042;-83
2023/04/26 08:06:43;;;;;;;0.20;0.10;;;;;;;;;;4963353;28;20885;-83
2023/04/26 08:09:13;;;;;;;0.20;0.10;;;;;;;;;;4967896;28;20315;-85
2023/04/26 08:11:40;;;;;;;0.20;0.10;;;;;;;;;;4992817;23;20477;-86
2023/04/26 08:14:06;;;;;;;0.20;0.10;;;;;;;;;;4961162;28;20047;-83
2023/04/26 08:16:40;;;;;;;0.20;0.10;;;;;;;;;;4954751;28;20053;-88
2023/04/26 08:19:25;;;;;;;0.20;0.10;;;;;;;;;;4942327;28;20099;-85
2023/04/26 08:22:05;;;;;;;0.20;0.10;;;;;;;;;;4932234;28;20381;-89
2023/04/26 08:24:33;;;;;;;0.80;0.40;;;;;;;;;;4960382;28;20780;-86
2023/04/26 08:26:59;;;;;;;0.20;0.10;;;;;;;;;;4951753;28;20512;-88
2023/04/26 08:29:36;;;;;;;;;;;;;;;;;;;;;
2023/04/26 08:32:09;;;;;;;0.20;0.10;;;;;;;;;;4978022;23;20070;-86
2023/04/26 08:34:43;;;;;;;0.20;0.10;;;;;;;;;;4948967;28;20507;-87
2023/04/26 08:37:10;;;;;;;0.20;0.10;;;;;;;;;;4954128;28;20045;-86
2023/04/26 08:39:36;;;;;;;0.20;0.10;;;;;;;;;;4920880;28;20116;-86
2023/04/26 08:42:12;;;;;;;0.20;0.10;;;;;;;;;;4899258;28;20175;-87
2023/04/26 08:44:40;;;;;;;0.20;0.10;;;;;;;;;;4898615;29;20465;-86
2023/04/26 08:47:20;;;;;;;0.30;0.13;;;;;;;;;;4919139;28;20070;-88
2023/04/26 08:49:49;;;;;;;0.20;0.10;;;;;;;;;;4922011;29;20054;-88
2023/04/26 08:52:31;;;;;;;0.20;0.00;;;;;;;;;;4906952;29;20500;-87
2023/04/26 08:54:57;;;;;;;0.20;0.10;;;;;;;;;;4928955;28;20082;-87
2023/04/26 08:57:42;;;;;;;0.20;0.10;;;;;;;;;;4911667;29;20051;-88
2023/04/26 09:00:35;;;;;;;0.20;0.10;;;;;;;;;;4936650;28;20082;-85
2023/04/26 09:03:02;;;;;;;0.20;0.10;;;;;;;;;;4929273;28;20380;-86
2023/04/26 09:05:28;;;;;;;0.20;0.08;;;;;;;;;;4928544;28;20047;-88
2023/04/26 09:07:56;;;;;;;0.20;0.10;;;;;;;;;;4927462;28;20329;-86
2023/04/26 09:13:30;;;;;;;0.20;0.10;;;;;;;;;;4893568;29;20119;-87
2023/04/26 09:15:56;;;;;;;0.20;0.10;;;;;;;;;;4928512;29;20040;-87
2023/04/26 09:18:23;;;;;;;0.20;0.10;;;;;;;;;;4915825;29;20118;-87
2023/04/26 09:21:08;;;;;;;0.20;0.10;;;;;;;;;;4913042;29;20289;-89
2023/04/26 09:23:35;;;;;;;0.20;0.10;;;;;;;;;;4928637;29;20050;-86
2023/04/26 09:26:20;;;;;;;0.20;0.10;;;;;;;;;;4910768;28;20134;-87
2023/04/26 09:28:46;;;;;;;0.20;0.10;;;;;;;;;;4921736;29;20099;-86
2023/04/26 09:31:31;;;;;;;0.20;0.10;;;;;;;;;;4915851;29;20043;-86
2023/04/26 09:34:00;;;;;;;0.20;0.10;;;;;;;;;;4927425;28;20050;-86
2023/04/26 09:36:30;;;;;;;0.20;0.10;;;;;;;;;;4913434;29;20050;-87
2023/04/26 09:38:59;;;;;;;0.20;0.10;;;;;;;;;;4923912;28;20062;-87
2023/04/26 09:41:41;;;;;;;0.20;0.10;;;;;;;;;;4919814;29;20047;-86
2023/04/26 09:44:19;;;;;;;0.20;0.10;;;;;;;;;;4929485;28;20055;-88
2023/04/26 09:46:57;;;;;;;0.20;0.10;;;;;;;;;;4924993;29;20122;-85
2023/04/26 09:49:25;;;;;;;0.20;0.10;;;;;;;;;;4922381;28;20106;-84
2023/04/26 09:52:01;;;;;;;0.20;0.10;;;;;;;;;;4915448;28;20039;-83
2023/04/26 09:54:37;;;;;;;0.20;0.00;;;;;;;;;;4912825;29;20047;-87
2023/04/26 09:57:03;;;;;;;0.20;0.10;;;;;;;;;;4920896;28;20043;-81
2023/04/26 09:59:39;;;;;;;0.20;0.10;;;;;;;;;;4918263;29;20075;-84
2023/04/26 10:02:15;;;;;;;0.20;0.10;;;;;;;;;;4907714;28;20051;-86
2023/04/26 10:04:48;;;;;;;0.20;0.10;;;;;;;;;;4923639;29;20629;-86
2023/04/26 10:07:20;;;;;;;0.20;0.10;;;;;;;;;;4909939;29;20047;-87
2023/04/26 10:10:03;;;;;;;0.20;0.10;;;;;;;;;;4925854;29;20087;-87
2023/04/26 10:13:03;;;;;;;0.20;0.10;;;;;;;;;;4915342;28;20399;-88
2023/04/26 10:15:39;;;;;;;0.20;0.10;;;;;;;;;;4920963;29;20043;-88
2023/04/26 10:18:23;;;;;;;0.25;0.15;;;;;;;;;;4929478;28;20500;-88
2023/04/26 10:21:02;;;;;;;0.20;0.10;;;;;;;;;;4963504;23;20054;-86
2023/04/26 10:24:05;;;;;;;0.20;0.10;;;;;;;;;;4962517;28;20531;-89
2023/04/26 10:27:17;;;;;;;;;;;;;;;;;;;;;
2023/04/26 10:30:25;;;;;;;0.20;0.10;;;;;;;;;;4956037;28;20057;-86
2023/04/26 10:33:28;;;;;;;0.20;0.10;;;;;;;;;;4906186;28;20054;-89
2023/04/26 10:36:19;;;;;;;0.20;0.10;;;;;;;;;;4939903;28;20499;-89
2023/04/26 10:39:29;;;;;;;0.20;0.10;;;;;;;;;;4938452;28;20047;-89
2023/04/26 10:42:24;;;;;;;0.20;0.10;;;;;;;;;;4934987;28;20101;-84
2023/04/26 10:44:57;;;;;;;0.20;0.00;;;;;;;;;;4926218;28;20038;-86
2023/04/26 10:48:01;;;;;;;0.20;0.10;;;;;;;;;;4941599;28;20133;-88
2023/04/26 10:50:56;;;;;;;0.20;0.10;;;;;;;;;;4847494;29;20462;-85
2023/04/26 10:53:22;;;;;;;0.20;0.10;;;;;;;;;;4835627;29;20071;-85
2023/04/26 10:55:48;;;;;;;0.20;0.17;;;;;;;;;;4905387;28;20047;-87
2023/04/26 10:58:33;;;;;;;0.20;0.10;;;;;;;;;;4942544;28;20054;-86
2023/04/26 11:01:05;;;;;;;0.20;0.10;;;;;;;;;;4964767;28;20093;-86
2023/04/26 11:03:39;;;;;;;0.20;0.10;;;;;;;;;;4947417;28;20666;-87
2023/04/26 11:06:20;;;;;;;0.20;0.10;;;;;;;;;;4929205;28;20039;-85
2023/04/26 11:08:57;;;;;;;0.20;0.10;;;;;;;;;;4940517;28;20061;-84
2023/04/26 11:11:36;;;;;;;0.20;0.10;;;;;;;;;;4946800;28;20522;-87
2023/04/26 11:14:02;;;;;;;0.20;0.10;;;;;;;;;;4946216;28;20137;-84
2023/04/26 11:16:28;;;;;;;0.20;0.10;;;;;;;;;;4947798;28;20188;-86
2023/04/26 11:19:01;;;;;;;0.20;0.10;;;;;;;;;;4936176;28;20774;-88
2023/04/26 11:21:27;;;;;;;;;;;;;;;;;;4947114;28;20046;-87
2023/04/26 11:24:01;;;;;;;0.40;0.15;;;;;;;;;;4941966;28;20221;-88
2023/04/26 11:26:33;;;;;;;0.20;0.10;;;;;;;;;;4927068;28;20098;-86
2023/04/26 11:29:00;;;;;;;0.20;0.20;;;;;;;;;;4924111;28;20528;-87
2023/04/26 11:31:26;;;;;;;0.20;0.10;;;;;;;;;;4929852;28;20055;-84
2023/04/26 11:33:52;;;;;;;0.20;0.20;;;;;;;;;;4946617;28;20054;-86
2023/04/26 11:36:23;;;;;;;0.20;0.10;;;;;;;;;;4931531;28;20038;-89
2023/04/26 11:38:53;;;;;;;0.20;0.10;;;;;;;;;;4926066;28;20047;-88
2023/04/26 11:41:19;;;;;;;0.20;0.10;;;;;;;;;;4930751;28;20082;-88
2023/04/26 11:43:45;;;;;;;0.20;0.10;;;;;;;;;;4959987;28;20097;-88
2023/04/26 11:46:15;;;;;;;0.20;0.10;;;;;;;;;;4941330;28;20049;-87
2023/04/26 11:48:44;;;;;;;0.20;0.20;;;;;;;;;;4927701;28;20059;-88
2023/04/26 11:51:11;;;;;;;0.20;0.10;;;;;;;;;;4923135;28;20046;-85
2023/04/26 11:53:41;;;;;;;0.20;0.10;;;;;;;;;;4940040;28;20081;-88
2023/04/26 11:56:33;;;;;;;0.20;0.00;;;;;;;;;;4925778;28;20043;-88
2023/04/26 11:59:25;;;;;;;0.20;0.10;;;;;;;;;;4936083;28;20062;-89
2023/04/26 12:01:55;;;;;;;0.20;0.10;;;;;;;;;;4947612;28;20504;-86
2023/04/26 12:04:30;;;;;;;0.20;0.10;;;;;;;;;;4929275;28;20513;-89
2023/04/26 12:06:59;;;;;;;0.20;0.10;;;;;;;;;;4959692;28;20447;-87
2023/04/26 12:09:29;;;;;;;0.20;0.10;;;;;;;;;;4928657;28;20070;-84
2023/04/26 12:12:10;;;;;;;0.20;0.10;;;;;;;;;;4948399;28;20543;-89
2023/04/26 12:14:47;;;;;;;0.20;0.10;;;;;;;;;;4933109;28;20073;-87
2023/04/26 12:17:28;;;;;;;0.20;0.10;;;;;;;;;;4925853;28;20521;-88
2023/04/26 12:20:12;;;;;;;0.20;0.10;;;;;;;;;;4931353;28;20050;-88
2023/04/26 12:22:38;;;;;;;0.68;0.30;;;;;;;;;;4929067;28;20117;-86
2023/04/26 12:25:14;;;;;;;0.20;0.10;;;;;;;;;;4944807;28;20054;-86
2023/04/26 12:28:02;;;;;;;0.20;0.10;;;;;;;;;;4925709;28;20199;-88
2023/04/26 12:30:28;;;;;;;0.20;0.03;;;;;;;;;;4946258;28;20200;-88
2023/04/26 12:33:33;;;;;;;0.20;0.10;;;;;;;;;;4930829;28;20046;-89
2023/04/26 12:36:43;;;;;;;;;;;;;;;;;;;;;
2023/04/26 12:39:28;;;;;;;;;;;;;;;;;;;;;
2023/04/26 12:42:40;;;;;;;0.20;0.10;;;;;;;;;;4966049;28;20041;-86
2023/04/26 12:45:55;;;;;;;0.20;0.10;;;;;;;;;;4936817;28;20054;-89
2023/04/26 12:49:02;;;;;;;0.28;0.20;;;;;;;;;;4944920;28;20500;-89
2023/04/26 12:55:15;;;;;;;0.20;0.10;;;;;;;;;;4919901;29;20127;-87
2023/04/26 12:57:56;;;;;;;0.20;0.10;;;;;;;;;;4950426;28;20105;-85
2023/04/26 13:00:38;;;;;;;0.20;0.10;;;;;;;;;;4928015;28;20403;-88
2023/04/26 13:03:22;;;;;;;0.20;0.10;;;;;;;;;;4942390;28;20106;-88
2023/04/26 13:05:48;;;;;;;0.20;0.10;;;;;;;;;;4931244;28;20098;-90
2023/04/26 13:08:17;;;;;;;0.20;0.10;;;;;;;;;;4930114;28;20544;-87
2023/04/26 13:10:52;;;;;;;0.20;0.10;;;;;;;;;;4942811;23;20043;-88
2023/04/26 13:13:18;;;;;;;0.20;0.10;;;;;;;;;;4946640;28;20137;-88
2023/04/26 13:15:53;;;;;;;0.20;0.10;;;;;;;;;;4948480;28;20051;-85
2023/04/26 13:18:20;;;;;;;0.20;0.10;;;;;;;;;;4940823;28;20277;-87
2023/04/26 13:20:52;;;;;;;0.20;0.10;;;;;;;;;;4935502;28;20039;-87
2023/04/26 13:23:24;;;;;;;0.20;0.10;;;;;;;;;;4932594;28;20081;-89
2023/04/26 13:25:56;;;;;;;0.20;0.00;;;;;;;;;;4931261;28;20208;-89
2023/04/26 13:28:37;;;;;;;0.20;0.00;;;;;;;;;;4934682;28;20038;-87
2023/04/26 13:31:18;;;;;;;0.20;0.10;;;;;;;;;;4907964;28;20063;-88
2023/04/26 13:34:14;;;;;;;0.20;0.10;;;;;;;;;;4890579;28;20132;-87
2023/04/26 13:36:42;;;;;;;0.20;0.10;;;;;;;;;;4931355;28;20424;-87
2023/04/26 13:42:07;;;;;;;0.20;0.10;;;;;;;;;;4931904;28;20055;-90
2023/04/26 13:44:35;;;;;;;0.20;0.10;;;;;;;;;;4918078;28;20055;-89
2023/04/26 13:47:05;;;;;;;0.20;0.10;;;;;;;;;;4933171;28;20043;-87
2023/04/26 13:52:21;;;;;;;0.20;0.10;;;;;;;;;;5031847;23;20062;-89
2023/04/26 13:54:58;;;;;;;0.20;0.10;;;;;;;;;;4963040;28;20614;-88
2023/04/26 13:57:41;;;;;;;0.20;0.10;;;;;;;;;;4955986;28;20043;-87
2023/04/26 14:00:16;;;;;;;0.20;0.10;;;;;;;;;;4911014;28;20678;-89
2023/04/26 14:02:58;;;;;;;0.20;0.10;;;;;;;;;;4930399;28;20053;-89
2023/04/26 14:08:59;;;;;;;0.20;0.10;;;;;;;;;;4925262;28;20046;-87
2023/04/26 14:11:43;;;;;;;0.20;0.10;;;;;;;;;;4983235;23;20206;-84
2023/04/26 14:14:09;;;;;;;0.20;0.10;;;;;;;;;;4934908;28;20051;-87
2023/04/26 14:16:35;;;;;;;0.20;0.10;;;;;;;;;;4935533;28;20054;-87
2023/04/26 14:19:07;;;;;;;0.20;0.10;;;;;;;;;;4933089;28;20058;-87
2023/04/26 14:21:33;;;;;;;0.20;0.10;;;;;;;;;;4933769;28;20047;-86
2023/04/26 14:24:07;;;;;;;0.20;0.10;;;;;;;;;;4919042;28;20444;-84
2023/04/26 14:26:33;;;;;;;0.20;0.10;;;;;;;;;;4924838;29;20591;-83
2023/04/26 14:29:09;;;;;;;0.20;0.10;;;;;;;;;;4922375;29;20417;-87
2023/04/26 14:31:36;;;;;;;0.20;0.10;;;;;;;;;;4923994;28;20329;-85
2023/04/26 14:34:02;;;;;;;0.20;0.10;;;;;;;;;;4926750;29;20049;-84
2023/04/26 14:36:28;;;;;;;0.30;0.30;;;;;;;;;;4928201;29;20070;-84
2023/04/26 14:38:54;;;;;;;0.20;0.10;;;;;;;;;;4919323;29;20051;-82
2023/04/26 14:41:20;;;;;;;0.20;0.10;;;;;;;;;;4930997;29;20058;-86
2023/04/26 14:43:46;;;;;;;0.20;0.10;;;;;;;;;;4924325;28;20133;-85
2023/04/26 14:46:13;;;;;;;0.20;0.10;;;;;;;;;;4925403;29;20038;-85
2023/04/26 14:48:47;;;;;;;0.20;0.10;;;;;;;;;;4931459;29;20203;-86
2023/04/26 14:51:16;;;;;;;0.20;0.10;;;;;;;;;;4929049;28;20440;-85
2023/04/26 14:53:45;;;;;;;0.20;0.10;;;;;;;;;;4931876;29;20051;-85
2023/04/26 14:56:12;;;;;;;0.20;0.10;;;;;;;;;;4932394;29;20297;-85
2023/04/26 14:58:38;;;;;;;0.20;0.10;;;;;;;;;;4932987;29;20057;-84
2023/04/26 15:01:04;;;;;;;0.20;0.10;;;;;;;;;;4930723;28;20157;-86
2023/04/26 15:03:31;;;;;;;0.20;0.10;;;;;;;;;;4933133;29;20059;-85
2023/04/26 15:05:57;;;;;;;0.20;0.10;;;;;;;;;;4933497;29;20388;-85
2023/04/26 15:08:23;;;;;;;0.20;0.10;;;;;;;;;;4939473;29;20496;-85
2023/04/26 15:10:55;;;;;;;0.20;0.10;;;;;;;;;;4932450;28;20043;-83
2023/04/26 15:13:25;;;;;;;1.25;0.28;;;;;;;;;;4936470;28;20057;-85
2023/04/26 15:15:51;;;;;;;0.20;0.10;;;;;;;;;;4933191;29;20046;-84
2023/04/26 15:18:17;;;;;;;0.20;0.10;;;;;;;;;;4933502;29;20047;-84
2023/04/26 15:20:43;;;;;;;0.20;0.10;;;;;;;;;;4935138;29;20035;-84
2023/04/26 15:23:09;;;;;;;0.20;0.05;;;;;;;;;;4933383;29;20047;-86
2023/04/26 15:25:55;;;;;;;0.20;0.10;;;;;;;;;;4932379;28;20039;-85
2023/04/26 15:28:25;;;;;;;0.20;0.10;;;;;;;;;;4945405;28;20048;-88